GP della Repubblica Ceca

MXGP 2021, GP della Repubblica Ceca: trionfo di Jorge Prado, a Cairoli Gara2. Guadagnini vince la MX2

- Il pilota spagnolo fa sua la tappa ceca dopo un primo posto in Gara1 e un terzo, dietro a Cairoli e Seewer, in Gara2. Tony balza al secondo posto nel Mondiale, a meno 11 punti da Tim Gajser. Mattia Guadagnini trionfa invece nel GP della MX2 portandosi a soli 2 punti dal leader della classifica iridata Maxime Renaux

La quinta tappa del Mondiale Motocross 2021 si è disputata in Repubblica Ceca, sul tracciato di Loket.

Jorge Prado si aggiudica, di misura, la classe regina. Decisivo il terzo posto dello spagnolo in Gara2, alle spalle di Antonio Cairoli e Jeremy Seewer.

Ivo Monticelli e Alessandro Lupino entrano nella top ten, rispettivamente quinto e ottavo. Solo 15esimo il capo classifica iridata Tim Gajser, scivolato nel finale di corsa. 14esimo Alberto Forato e 26esimo Edoardo Bersanelli.

Nella prima manche aveva invece vinto Prado, seguito da Gajser e Romain Febvre. Cairoli aveva chiuso sesto, lontano 36.9 secondi dal battistrada, con Lupino ottavo e Monticelli 14esimo. Forato aveva terminato in 23esima posizione e Bersanelli in 27esima.

Nel Mondiale, Gajser conserva la sua leadership. Lo sloveno della Honda conduce con 194 punti. Cairoli balza al secondo posto a quota 183. Al terzo posto sale Prado (177) seguito da Febvre (174).

GP della Repubblica Ceca - MXGP - La classifica della prima manche (primi 20)

Pos Nr Rider Nat. Fed. Bike Time laps Diff. First Diff. Prev. Bestlaptime in lap Speed
1 61 Prado, Jorge ESP RFME KTM 35:10.919 19 0:00.000 0:00.000 1:48.078 5 52.829
2 243 Gajser, Tim SLO AMZS Honda 35:11.448 19 0:00.529 0:00.529 1:48.067 6 52.834
3 3 Febvre, Romain FRA FFM Kawasaki 35:32.887 19 0:21.968 0:21.439 1:48.845 12 52.456
4 259 Coldenhoff, Glenn NED KNMV Yamaha 35:34.894 19 0:23.975 0:02.007 1:48.926 5 52.417
5 91 Seewer, Jeremy SUI FMS Yamaha 35:36.368 19 0:25.449 0:01.474 1:49.293 5 52.241
6 222 Cairoli, Antonio ITA FMI KTM 35:47.833 19 0:36.914 0:11.465 1:49.377 3 52.201
7 89 Van Horebeek, Jeremy BEL FMB Beta 35:52.207 19 0:41.288 0:04.374 1:50.287 4 51.77
8 77 Lupino, Alessandro ITA FMI KTM 35:53.647 19 0:42.728 0:01.440 1:49.763 3 52.018
9 10 Vlaanderen, Calvin NED KNMV Yamaha 35:53.761 19 0:42.842 0:00.114 1:50.094 5 51.861
10 29 Jacobi, Henry GER DMSB Honda 36:02.278 19 0:51.359 0:08.517 1:49.528 5 52.129
11 919 Watson, Ben GBR ACU Yamaha 36:03.408 19 0:52.489 0:01.130 1:48.652 3 52.549
12 183 Locurcio, Lorenzo VEN FMV KTM 36:11.179 19 1:00.260 0:07.771 1:49.846 3 51.978
13 7 Jasikonis, Arminas LTU LMSF Husqvarna 36:13.929 19 1:03.010 0:02.750 1:50.827 14 51.518
14 128 Monticelli, Ivo ITA FMI Kawasaki 36:16.629 19 1:05.710 0:02.700 1:50.595 11 51.626
15 226 Koch, Tom GER DMSB KTM 36:20.085 19 1:09.166 0:03.456 1:51.365 8 51.269
16 161 Östlund, Alvin SWE SVEMO Yamaha 36:27.251 19 1:16.332 0:07.166 1:50.931 9 51.47
17 24 Simpson, Shaun GBR ACU KTM 36:32.905 19 1:21.986 0:05.654 1:51.660 7 51.134
18 189 Bogers, Brian NED KNMV GASGAS 36:36.269 19 1:25.350 0:03.364 1:51.948 8 51.002
19 811 Sterry, Adam GBR ACU KTM 36:41.671 19 1:30.752 0:05.402 1:51.142 10 51.372
20 911 Tixier, Jordi FRA FFM KTM 36:44.592 19 1:33.673 0:02.921 1:52.006 11 50.976

GP della Repubblica Ceca - MXGP - La classifica della seconda manche (primi 20)

Pos Nr Rider Nat. Fed. Bike Time laps Diff. First Diff. Prev. Bestlaptime in lap Speed
1 222 Cairoli, Antonio ITA FMI KTM 33:52.869 18 0:00.000 0:00.000 1:49.458 1 52.162
2 91 Seewer, Jeremy SUI FMS Yamaha 33:57.238 18 0:04.369 0:04.369 1:50.516 9 51.663
3 61 Prado, Jorge ESP RFME KTM 34:00.584 18 0:07.715 0:03.346 1:50.585 1 51.631
4 259 Coldenhoff, Glenn NED KNMV Yamaha 34:03.458 18 0:10.589 0:02.874 1:50.567 6 51.639
5 128 Monticelli, Ivo ITA FMI Kawasaki 34:16.494 18 0:23.625 0:13.036 1:51.063 4 51.409
6 41 Jonass, Pauls LAT LAMSF GASGAS 34:18.979 18 0:26.110 0:02.485 1:50.653 3 51.599
7 24 Simpson, Shaun GBR ACU KTM 34:21.632 18 0:28.763 0:02.653 1:51.253 4 51.321
8 77 Lupino, Alessandro ITA FMI KTM 34:23.211 18 0:30.342 0:01.579 1:51.205 3 51.343
9 89 Van Horebeek, Jeremy BEL FMB Beta 34:28.680 18 0:35.811 0:05.469 1:51.239 4 51.327
10 3 Febvre, Romain FRA FFM Kawasaki 34:35.031 18 0:42.162 0:06.351 1:50.808 7 51.527
11 19 Olsen, Thomas Kjer DEN DMU Husqvarna 34:36.589 18 0:43.720 0:01.558 1:51.127 3 51.379
12 919 Watson, Ben GBR ACU Yamaha 34:43.348 18 0:50.479 0:06.759 1:52.175 6 50.899
13 811 Sterry, Adam GBR ACU KTM 34:47.984 18 0:55.115 0:04.636 1:51.490 5 51.212
14 303 Forato, Alberto ITA FMI GASGAS 34:58.347 18 1:05.478 0:10.363 1:52.990 8 50.532
15 243 Gajser, Tim SLO AMZS Honda 35:00.097 18 1:07.228 0:01.750 1:50.008 2 51.902
16 29 Jacobi, Henry GER DMSB Honda 35:11.136 18 1:18.267 0:11.039 1:52.987 7 50.533
17 183 Locurcio, Lorenzo VEN FMV KTM 35:12.892 18 1:20.023 0:01.756 1:53.687 7 50.222
18 18 Brylyakov, Vsevolod MFR MFR Honda 35:14.981 18 1:22.112 0:02.089 1:54.339 8 49.936
19 17 Butron, Jose ESP RFME KTM 35:15.398 18 1:22.529 0:00.417 1:54.107 9 50.037
20 226 Koch, Tom GER DMSB KTM 35:24.387 18 1:31.518 0:08.989 1:54.748 4 49.758

MX2

In MX2Mattia Guadagnini (Ktm) conquista la prima manche, davanti a Tom Vialle (Ktm) e Jed Beaton (Husqvarna). L'italiano ha rifilato 2.6 secondi al francese e 4.7 secondi all'australiano.

Nella seconda gara invece è stata tripletta Yamaha. Il primo posto è andato a Thibault Benistant, con Maxime Renaux secondo e Jago Geerts terzo. Guadagnini ha chiuso quinto, incamerando i punti necessari per accorciare il distacco nel Mondiale nei confronti di Renaux (quinto in Gara1). Adesso i due sono separati da sole 2 lunghezze: 179 punti per Renaux, 177 per Guadagnini.

Da segnalare il 13esimo posto in Gara1 di Andrea Adamo e il 14esimo di Giuseppe Tropepe in Gara2.

Prossima tappa del Mondiale Motocross 2021, settimana prossima, domenica 1 agosto, a Lommel, in Belgio.

GP della Repubblica Ceca - MX2 - La classifica della prima manche (primi 20)

Pos Nr Rider Nat. Fed. Bike Time laps Diff. First Diff. Prev. Bestlaptime in lap Speed
1 101 Guadagnini, Mattia ITA FMI KTM 33:59.915 18 0:00.000 0:00.000 1:49.058 6 52.354
2 28 Vialle, Tom FRA FFM KTM 34:02.573 18 0:02.658 0:02.658 1:49.645 7 52.074
3 14 Beaton, Jed AUS MA Husqvarna 34:04.676 18 0:04.761 0:02.103 1:50.217 6 51.803
4 70 Fernandez, Ruben ESP RFME Honda 34:05.919 18 0:06.004 0:01.243 1:50.435 7 51.701
5 959 Renaux, Maxime FRA FFM Yamaha 34:06.918 18 0:07.003 0:00.999 1:50.631 16 51.609
6 74 de Wolf, Kay NED KNMV Husqvarna 34:10.789 18 0:10.874 0:03.871 1:50.563 6 51.641
7 20 Todd, Wilson AUS ACU Kawasaki 34:16.669 18 0:16.754 0:05.880 1:51.171 6 51.359
8 39 Van De Moosdijk, Roan NED KNMV Kawasaki 34:18.276 18 0:18.361 0:01.607 1:51.175 6 51.357
9 198 Benistant, Thibault FRA FFM Yamaha 34:19.784 18 0:19.869 0:01.508 1:50.508 7 51.667
10 711 Hofer, Rene AUT AMF KTM 34:22.977 18 0:23.062 0:03.193 1:51.336 12 51.283
11 172 Boisrame, Mathys FRA FFM Kawasaki 34:27.657 18 0:27.742 0:04.680 1:51.425 11 51.242
12 93 Geerts, Jago BEL FMB Yamaha 34:29.178 18 0:29.263 0:01.521 1:51.235 12 51.329
13 80 Adamo, Andrea ITA FMI GASGAS 34:50.242 18 0:50.327 0:21.064 1:52.210 8 50.883
14 516 Laengenfelder, Simon GER DMSB GASGAS 34:52.543 18 0:52.628 0:02.301 1:52.503 4 50.751
15 517 Gifting, Isak SWE SVEMO GASGAS 34:57.228 18 0:57.313 0:04.685 1:52.647 11 50.686
16 11 Haarup, Mikkel DEN DMU Kawasaki 34:58.444 18 0:58.529 0:01.216 1:51.599 8 51.162
17 766 Sandner, Michael AUT AMF KTM 35:04.179 18 1:04.264 0:05.735 1:52.661 5 50.679
18 403 Boegh Damm, Bastian DEN DMU KTM 35:05.979 18 1:06.064 0:01.800 1:53.425 5 50.338
19 239 Florian, Lion GER DMSB KTM 35:07.398 18 1:07.483 0:01.419 1:52.924 6 50.561
20 253 Pancar, Jan SLO AMZS KTM 35:08.603 18 1:08.688 0:01.205 1:53.906 5 50.126

GP della Repubblica Ceca - MX2 - La classifica della seconda manche (primi 20)

Pos Nr Rider Nat. Fed. Bike Time laps Diff. First Diff. Prev. Bestlaptime in lap Speed
1 198 Benistant, Thibault FRA FFM Yamaha 34:24.942 18 0:00.000 0:00.000 1:51.068 2 51.406
2 959 Renaux, Maxime FRA FFM Yamaha 34:30.622 18 0:05.680 0:05.680 1:51.168 2 51.36
3 93 Geerts, Jago BEL FMB Yamaha 34:31.585 18 0:06.643 0:00.963 1:52.351 18 50.819
4 711 Hofer, Rene AUT AMF KTM 34:42.599 18 0:17.657 0:11.014 1:51.989 3 50.984
5 101 Guadagnini, Mattia ITA FMI KTM 34:48.347 18 0:23.405 0:05.748 1:51.711 4 51.11
6 172 Boisrame, Mathys FRA FFM Kawasaki 34:55.715 18 0:30.773 0:07.368 1:52.071 5 50.946
7 70 Fernandez, Ruben ESP RFME Honda 34:57.084 18 0:32.142 0:01.369 1:52.497 3 50.753
8 14 Beaton, Jed AUS MA Husqvarna 35:03.866 18 0:38.924 0:06.782 1:53.586 6 50.267
9 74 de Wolf, Kay NED KNMV Husqvarna 35:11.546 18 0:46.604 0:07.680 1:53.483 7 50.312
10 426 Mewse, Conrad GBR ACU KTM 35:13.619 18 0:48.677 0:02.073 1:54.187 5 50.002
11 20 Todd, Wilson AUS ACU Kawasaki 35:18.182 18 0:53.240 0:04.563 1:54.016 8 50.077
12 240 Horgmo, Kevin NOR NMF GASGAS 35:24.757 18 0:59.815 0:06.575 1:54.538 11 49.849
13 517 Gifting, Isak SWE SVEMO GASGAS 35:37.496 18 1:12.554 0:12.739 1:54.306 2 49.95
14 223 Tropepe, Giuseppe ITA FMI Husqvarna 35:39.611 18 1:14.669 0:02.115 1:54.828 7 49.723
15 516 Laengenfelder, Simon GER DMSB GASGAS 35:42.309 18 1:17.367 0:02.698 1:54.825 5 49.724
16 11 Haarup, Mikkel DEN DMU Kawasaki 35:43.083 18 1:18.141 0:00.774 1:54.469 5 49.879
17 403 Boegh Damm, Bastian DEN DMU KTM 35:54.894 18 1:29.952 0:11.811 1:55.089 7 49.61
18 94 Facchetti, Gianluca ITA FMI Honda 35:56.041 18 1:31.099 0:01.147 1:56.081 12 49.186
19 224 Teresak, Jakub CZE ACCR KTM 35:57.090 18 1:32.148 0:01.049 1:56.298 3 49.095
20 118 Rubini, Stephen FRA FFM Honda 36:04.647 18 1:39.705 0:07.557 1:55.501 5 49.433
  • Vannu01, Misano Adriatico (RN)

    Tony stellareeee!
  • gliogli, San Vito sullo Ionio (CZ)

    Grande prestazione in gara 2, sicuramente se messo sotto pressione anche il campione in carica può sbagliare, è importante la costanza ma credo che al momento manchi anche qualcosina in termini di velocità rispetto a Gajser, ma la storia insegna che Tony solitamente raggiunge il top della forma nella seconda parte del mondiale. Resta sempre è comunque un fuoriclasse.
Inserisci il tuo commento